sensor_id;sensor_type;location;lat;lon;timestamp;pressure;altitude;pressure_sealevel;temperature;humidity
35151;BME280;55720;51.972;4.624;2023-03-04T00:01:41;102903.28;;;5.23;100.00
35151;BME280;55720;51.972;4.624;2023-03-04T00:04:06;102907.47;;;5.14;100.00
35151;BME280;55720;51.972;4.624;2023-03-04T00:06:32;102907.63;;;5.07;100.00
35151;BME280;55720;51.972;4.624;2023-03-04T00:08:57;102914.41;;;5.05;100.00
35151;BME280;55720;51.972;4.624;2023-03-04T00:11:23;102917.13;;;5.05;100.00
35151;BME280;55720;51.972;4.624;2023-03-04T00:13:49;102917.34;;;5.03;100.00
35151;BME280;55720;51.972;4.624;2023-03-04T00:16:14;102916.28;;;5.04;100.00
35151;BME280;55720;51.972;4.624;2023-03-04T00:18:40;102922.25;;;5.01;100.00
35151;BME280;55720;51.972;4.624;2023-03-04T00:21:05;102912.41;;;5.00;100.00
35151;BME280;55720;51.972;4.624;2023-03-04T00:23:31;102913.84;;;5.03;100.00
35151;BME280;55720;51.972;4.624;2023-03-04T00:25:56;102911.91;;;5.03;100.00
35151;BME280;55720;51.972;4.624;2023-03-04T00:28:22;102916.28;;;5.04;100.00
35151;BME280;55720;51.972;4.624;2023-03-04T00:30:47;102917.84;;;5.00;100.00
35151;BME280;55720;51.972;4.624;2023-03-04T00:33:12;102917.03;;;5.00;100.00
35151;BME280;55720;51.972;4.624;2023-03-04T00:35:39;102915.88;;;4.95;100.00
35151;BME280;55720;51.972;4.624;2023-03-04T00:38:05;102909.94;;;4.99;100.00
35151;BME280;55720;51.972;4.624;2023-03-04T00:40:30;102911.69;;;5.05;100.00
35151;BME280;55720;51.972;4.624;2023-03-04T00:42:55;102915.56;;;5.09;100.00
35151;BME280;55720;51.972;4.624;2023-03-04T00:45:21;102913.56;;;5.04;100.00
35151;BME280;55720;51.972;4.624;2023-03-04T00:47:46;102910.13;;;5.09;100.00
35151;BME280;55720;51.972;4.624;2023-03-04T00:50:12;102903.50;;;5.05;100.00
35151;BME280;55720;51.972;4.624;2023-03-04T00:52:37;102906.91;;;5.12;100.00
35151;BME280;55720;51.972;4.624;2023-03-04T00:55:03;102904.34;;;5.05;100.00
35151;BME280;55720;51.972;4.624;2023-03-04T00:57:29;102903.19;;;5.01;100.00
35151;BME280;55720;51.972;4.624;2023-03-04T00:59:54;102904.00;;;5.02;100.00
35151;BME280;55720;51.972;4.624;2023-03-04T01:02:19;102898.56;;;5.02;100.00
35151;BME280;55720;51.972;4.624;2023-03-04T01:04:45;102900.69;;;5.00;100.00
35151;BME280;55720;51.972;4.624;2023-03-04T01:07:10;102902.63;;;4.99;100.00
35151;BME280;55720;51.972;4.624;2023-03-04T01:09:35;102909.19;;;5.03;100.00
35151;BME280;55720;51.972;4.624;2023-03-04T01:12:01;102907.78;;;5.01;100.00
35151;BME280;55720;51.972;4.624;2023-03-04T01:14:27;102901.13;;;5.08;100.00
35151;BME280;55720;51.972;4.624;2023-03-04T01:16:52;102903.13;;;5.13;100.00
35151;BME280;55720;51.972;4.624;2023-03-04T01:19:18;102905.13;;;5.17;100.00
35151;BME280;55720;51.972;4.624;2023-03-04T01:21:43;102903.78;;;5.20;100.00
35151;BME280;55720;51.972;4.624;2023-03-04T01:24:09;102896.94;;;5.17;100.00
35151;BME280;55720;51.972;4.624;2023-03-04T01:26:34;102888.69;;;5.12;100.00
35151;BME280;55720;51.972;4.624;2023-03-04T01:29:00;102886.53;;;5.14;100.00
35151;BME280;55720;51.972;4.624;2023-03-04T01:31:25;102889.00;;;5.16;100.00
35151;BME280;55720;51.972;4.624;2023-03-04T01:33:50;102887.03;;;5.11;100.00
35151;BME280;55720;51.972;4.624;2023-03-04T01:36:16;102884.78;;;5.08;100.00
35151;BME280;55720;51.972;4.624;2023-03-04T01:38:41;102874.13;;;5.07;100.00
35151;BME280;55720;51.972;4.624;2023-03-04T01:41:07;102872.75;;;5.04;100.00
35151;BME280;55720;51.972;4.624;2023-03-04T01:43:34;102880.84;;;4.99;100.00
35151;BME280;55720;51.972;4.624;2023-03-04T01:46:01;102874.72;;;5.09;100.00
35151;BME280;55720;51.972;4.624;2023-03-04T01:48:32;102874.22;;;5.12;100.00
35151;BME280;55720;51.972;4.624;2023-03-04T01:51:01;102867.13;;;5.11;100.00
35151;BME280;55720;51.972;4.624;2023-03-04T01:53:28;102872.84;;;5.09;100.00
35151;BME280;55720;51.972;4.624;2023-03-04T01:55:56;102866.22;;;5.05;100.00
35151;BME280;55720;51.972;4.624;2023-03-04T01:58:25;102860.69;;;5.00;100.00
35151;BME280;55720;51.972;4.624;2023-03-04T02:00:52;102859.72;;;5.06;100.00
35151;BME280;55720;51.972;4.624;2023-03-04T02:03:18;102846.69;;;5.08;100.00
35151;BME280;55720;51.972;4.624;2023-03-04T02:05:51;102838.66;;;5.02;100.00
35151;BME280;55720;51.972;4.624;2023-03-04T02:08:19;102839.84;;;5.06;100.00
35151;BME280;55720;51.972;4.624;2023-03-04T02:10:45;102834.22;;;5.12;100.00
35151;BME280;55720;51.972;4.624;2023-03-04T02:13:12;102822.66;;;5.05;100.00
35151;BME280;55720;51.972;4.624;2023-03-04T02:15:38;102834.78;;;4.97;100.00
35151;BME280;55720;51.972;4.624;2023-03-04T02:18:13;102823.72;;;5.04;100.00
35151;BME280;55720;51.972;4.624;2023-03-04T02:23:31;102817.63;;;5.14;100.00
35151;BME280;55720;51.972;4.624;2023-03-04T02:28:39;102818.94;;;5.11;100.00
35151;BME280;55720;51.972;4.624;2023-03-04T02:31:05;102815.66;;;5.09;100.00
35151;BME280;55720;51.972;4.624;2023-03-04T02:33:31;102811.78;;;5.05;100.00
35151;BME280;55720;51.972;4.624;2023-03-04T02:35:57;102811.78;;;5.05;100.00
35151;BME280;55720;51.972;4.624;2023-03-04T02:38:23;102808.00;;;5.06;100.00
35151;BME280;55720;51.972;4.624;2023-03-04T02:40:50;102801.94;;;5.04;100.00
35151;BME280;55720;51.972;4.624;2023-03-04T02:43:17;102799.50;;;5.03;100.00
35151;BME280;55720;51.972;4.624;2023-03-04T02:45:48;102795.44;;;5.05;100.00
35151;BME280;55720;51.972;4.624;2023-03-04T02:48:18;102793.78;;;5.04;100.00
35151;BME280;55720;51.972;4.624;2023-03-04T02:50:46;102797.91;;;5.07;100.00
35151;BME280;55720;51.972;4.624;2023-03-04T02:53:12;102792.97;;;5.04;100.00
35151;BME280;55720;51.972;4.624;2023-03-04T02:55:39;102793.03;;;5.09;100.00
35151;BME280;55720;51.972;4.624;2023-03-04T02:58:06;102794.13;;;5.08;100.00
35151;BME280;55720;51.972;4.624;2023-03-04T03:00:32;102793.78;;;5.04;100.00
35151;BME280;55720;51.972;4.624;2023-03-04T03:02:57;102793.53;;;5.06;100.00
35151;BME280;55720;51.972;4.624;2023-03-04T03:05:25;102786.69;;;5.03;100.00
35151;BME280;55720;51.972;4.624;2023-03-04T03:07:51;102795.44;;;5.05;100.00
35151;BME280;55720;51.972;4.624;2023-03-04T03:10:16;102790.00;;;5.05;100.00
35151;BME280;55720;51.972;4.624;2023-03-04T03:12:42;102796.78;;;5.03;100.00
35151;BME280;55720;51.972;4.624;2023-03-04T03:15:08;102792.72;;;5.05;100.00
35151;BME280;55720;51.972;4.624;2023-03-04T03:17:33;102793.13;;;4.97;100.00
35151;BME280;55720;51.972;4.624;2023-03-04T03:19:59;102797.50;;;4.98;100.00
35151;BME280;55720;51.972;4.624;2023-03-04T03:22:24;102792.63;;;5.00;100.00
35151;BME280;55720;51.972;4.624;2023-03-04T03:24:49;102794.28;;;5.01;100.00
35151;BME280;55720;51.972;4.624;2023-03-04T03:27:15;102794.63;;;5.05;100.00
35151;BME280;55720;51.972;4.624;2023-03-04T03:29:41;102800.88;;;5.05;100.00
35151;BME280;55720;51.972;4.624;2023-03-04T03:32:06;102791.31;;;5.03;100.00
35151;BME280;55720;51.972;4.624;2023-03-04T03:34:32;102799.22;;;5.04;100.00
35151;BME280;55720;51.972;4.624;2023-03-04T03:36:57;102789.72;;;5.07;100.00
35151;BME280;55720;51.972;4.624;2023-03-04T03:39:22;102797.91;;;5.07;100.00
35151;BME280;55720;51.972;4.624;2023-03-04T03:41:48;102795.44;;;5.05;100.00
35151;BME280;55720;51.972;4.624;2023-03-04T03:44:14;102794.06;;;5.03;100.00
35151;BME280;55720;51.972;4.624;2023-03-04T03:46:40;102794.28;;;5.01;100.00
35151;BME280;55720;51.972;4.624;2023-03-04T03:49:05;102793.13;;;4.97;100.00
35151;BME280;55720;51.972;4.624;2023-03-04T03:51:31;102789.84;;;4.95;100.00
35151;BME280;55720;51.972;4.624;2023-03-04T03:53:56;102797.50;;;4.98;100.00
35151;BME280;55720;51.972;4.624;2023-03-04T03:56:21;102787.13;;;4.95;100.00
35151;BME280;55720;51.972;4.624;2023-03-04T03:58:47;102794.78;;;4.98;100.00
35151;BME280;55720;51.972;4.624;2023-03-04T04:01:12;102790.22;;;5.04;100.00
35151;BME280;55720;51.972;4.624;2023-03-04T04:03:38;102785.06;;;5.02;100.00
35151;BME280;55720;51.972;4.624;2023-03-04T04:06:03;102791.97;;;5.10;100.00
35151;BME280;55720;51.972;4.624;2023-03-04T04:08:29;102788.66;;;5.08;100.00
35151;BME280;55720;51.972;4.624;2023-03-04T04:10:54;102793.72;;;4.99;100.00
35151;BME280;55720;51.972;4.624;2023-03-04T04:13:20;102800.56;;;5.02;100.00
35151;BME280;55720;51.972;4.624;2023-03-04T04:15:45;102798.91;;;5.01;100.00
35151;BME280;55720;51.972;4.624;2023-03-04T04:18:10;102796.78;;;5.03;100.00
35151;BME280;55720;51.972;4.624;2023-03-04T04:20:36;102800.28;;;5.03;100.00
35151;BME280;55720;51.972;4.624;2023-03-04T04:23:02;102802.94;;;4.98;100.00
35151;BME280;55720;51.972;4.624;2023-03-04T04:25:28;102805.69;;;4.98;100.00
35151;BME280;55720;51.972;4.624;2023-03-04T04:27:53;102801.88;;;4.99;100.00
35151;BME280;55720;51.972;4.624;2023-03-04T04:30:19;102799.41;;;4.97;100.00
35151;BME280;55720;51.972;4.624;2023-03-04T04:32:44;102798.75;;;4.90;100.00
35151;BME280;55720;51.972;4.624;2023-03-04T04:35:10;102805.56;;;4.93;100.00
35151;BME280;55720;51.972;4.624;2023-03-04T04:37:35;102802.78;;;4.88;100.00
35151;BME280;55720;51.972;4.624;2023-03-04T04:40:02;102809.03;;;4.88;100.00
35151;BME280;55720;51.972;4.624;2023-03-04T04:42:27;102807.00;;;4.95;100.00
35151;BME280;55720;51.972;4.624;2023-03-04T04:44:53;102802.34;;;4.96;100.00
35151;BME280;55720;51.972;4.624;2023-03-04T04:47:18;102796.34;;;4.94;100.00
35151;BME280;55720;51.972;4.624;2023-03-04T04:49:44;102799.81;;;4.89;100.00
35151;BME280;55720;51.972;4.624;2023-03-04T04:52:09;102804.69;;;4.87;100.00
35151;BME280;55720;51.972;4.624;2023-03-04T04:54:34;102804.69;;;4.87;100.00
35151;BME280;55720;51.972;4.624;2023-03-04T04:57:00;102811.09;;;4.81;100.00
35151;BME280;55720;51.972;4.624;2023-03-04T04:59:25;102798.97;;;4.89;100.00
35151;BME280;55720;51.972;4.624;2023-03-04T05:01:51;102808.22;;;4.88;100.00
35151;BME280;55720;51.972;4.624;2023-03-04T05:04:16;102806.06;;;4.90;100.00
35151;BME280;55720;51.972;4.624;2023-03-04T05:06:41;102805.50;;;4.88;100.00
35151;BME280;55720;51.972;4.624;2023-03-04T05:09:07;102815.22;;;4.84;100.00
35151;BME280;55720;51.972;4.624;2023-03-04T05:11:33;102813.56;;;4.83;100.00
35151;BME280;55720;51.972;4.624;2023-03-04T05:13:58;102814.56;;;4.77;100.00
35151;BME280;55720;51.972;4.624;2023-03-04T05:16:24;102817.28;;;4.77;100.00
35151;BME280;55720;51.972;4.624;2023-03-04T05:18:49;102809.47;;;4.80;100.00
35151;BME280;55720;51.972;4.624;2023-03-04T05:21:17;102815.06;;;4.74;100.00
35151;BME280;55720;51.972;4.624;2023-03-04T05:23:43;102813.41;;;4.73;100.00
35151;BME280;55720;51.972;4.624;2023-03-04T05:26:12;102822.13;;;4.75;100.00
35151;BME280;55720;51.972;4.624;2023-03-04T05:28:37;102819.91;;;4.72;100.00
35151;BME280;55720;51.972;4.624;2023-03-04T05:31:03;102811.25;;;4.75;100.00
35151;BME280;55720;51.972;4.624;2023-03-04T05:33:28;102817.69;;;4.69;100.00
35151;BME280;55720;51.972;4.624;2023-03-04T05:35:54;102813.31;;;4.68;100.00
35151;BME280;55720;51.972;4.624;2023-03-04T05:38:20;102816.84;;;4.68;100.00
35151;BME280;55720;51.972;4.624;2023-03-04T05:40:46;102815.19;;;4.67;100.00
35151;BME280;55720;51.972;4.624;2023-03-04T05:43:13;102812.97;;;4.64;100.00
35151;BME280;55720;51.972;4.624;2023-03-04T05:45:39;102820.91;;;4.66;100.00
35151;BME280;55720;51.972;4.624;2023-03-04T05:48:05;102817.59;;;4.64;100.00
35151;BME280;55720;51.972;4.624;2023-03-04T05:50:31;102818.66;;;4.63;100.00
35151;BME280;55720;51.972;4.624;2023-03-04T05:52:57;102815.63;;;4.59;100.00
35151;BME280;55720;51.972;4.624;2023-03-04T05:55:23;102807.44;;;4.59;100.00
35151;BME280;55720;51.972;4.624;2023-03-04T05:57:49;102798.69;;;4.57;100.00
35151;BME280;55720;51.972;4.624;2023-03-04T06:00:15;102799.19;;;4.54;100.00
35151;BME280;55720;51.972;4.624;2023-03-04T06:02:43;102795.53;;;4.48;100.00
35151;BME280;55720;51.972;4.624;2023-03-04T06:05:11;102793.91;;;4.47;100.00
35151;BME280;55720;51.972;4.624;2023-03-04T06:07:37;102784.66;;;4.48;100.00
35151;BME280;55720;51.972;4.624;2023-03-04T06:10:03;102783.34;;;4.51;100.00
35151;BME280;55720;51.972;4.624;2023-03-04T06:12:28;102775.53;;;4.55;100.00
35151;BME280;55720;51.972;4.624;2023-03-04T06:14:54;102770.59;;;4.52;100.00
35151;BME280;55720;51.972;4.624;2023-03-04T06:17:19;102765.22;;;4.57;100.00
35151;BME280;55720;51.972;4.624;2023-03-04T06:19:44;102765.22;;;4.57;100.00
35151;BME280;55720;51.972;4.624;2023-03-04T06:22:10;102772.09;;;4.59;100.00
35151;BME280;55720;51.972;4.624;2023-03-04T06:24:36;102771.59;;;4.62;100.00
35151;BME280;55720;51.972;4.624;2023-03-04T06:27:01;102773.47;;;4.62;100.00
35151;BME280;55720;51.972;4.624;2023-03-04T06:29:27;102777.38;;;4.66;100.00
35151;BME280;55720;51.972;4.624;2023-03-04T06:31:52;102783.03;;;4.64;100.00
35151;BME280;55720;51.972;4.624;2023-03-04T06:34:18;102778.25;;;4.71;100.00
35151;BME280;55720;51.972;4.624;2023-03-04T06:36:44;102783.97;;;4.70;100.00
35151;BME280;55720;51.972;4.624;2023-03-04T06:39:09;102778.75;;;4.68;100.00
35151;BME280;55720;51.972;4.624;2023-03-04T06:41:35;102777.88;;;4.79;100.00
35151;BME280;55720;51.972;4.624;2023-03-04T06:44:01;102773.16;;;4.75;100.00
35151;BME280;55720;51.972;4.624;2023-03-04T06:46:26;102775.88;;;4.75;100.00
35151;BME280;55720;51.972;4.624;2023-03-04T06:48:52;102773.41;;;4.73;100.00
35151;BME280;55720;51.972;4.624;2023-03-04T06:51:17;102770.19;;;4.76;100.00
35151;BME280;55720;51.972;4.624;2023-03-04T06:53:43;102777.53;;;4.76;100.00
35151;BME280;55720;51.972;4.624;2023-03-04T06:56:10;102777.03;;;4.79;100.00
35151;BME280;55720;51.972;4.624;2023-03-04T06:58:36;102781.97;;;4.82;100.00
35151;BME280;55720;51.972;4.624;2023-03-04T07:01:22;102794.03;;;4.86;100.00
35151;BME280;55720;51.972;4.624;2023-03-04T07:03:50;102784.31;;;4.90;100.00
35151;BME280;55720;51.972;4.624;2023-03-04T07:06:20;102790.66;;;4.95;100.00
35151;BME280;55720;51.972;4.624;2023-03-04T07:08:46;102790.50;;;5.02;100.00
35151;BME280;55720;51.972;4.624;2023-03-04T07:11:12;102787.00;;;5.07;100.00
35151;BME280;55720;51.972;4.624;2023-03-04T07:13:38;102785.38;;;5.06;100.00
35151;BME280;55720;51.972;4.624;2023-03-04T07:16:10;102797.09;;;5.06;100.00
35151;BME280;55720;51.972;4.624;2023-03-04T07:18:36;102795.78;;;5.09;100.00
35151;BME280;55720;51.972;4.624;2023-03-04T07:21:03;102799.38;;;5.14;100.00
35151;BME280;55720;51.972;4.624;2023-03-04T07:23:29;102804.34;;;5.17;100.00
35151;BME280;55720;51.972;4.624;2023-03-04T07:25:54;102796.00;;;5.24;100.00
35151;BME280;55720;51.972;4.624;2023-03-04T07:28:19;102804.91;;;5.36;100.00
35151;BME280;55720;51.972;4.624;2023-03-04T07:30:45;102797.56;;;5.36;100.00
35151;BME280;55720;51.972;4.624;2023-03-04T07:33:10;102813.25;;;5.46;100.00
35151;BME280;55720;51.972;4.624;2023-03-04T07:35:36;102812.91;;;5.42;100.00
35151;BME280;55720;51.972;4.624;2023-03-04T07:38:02;102820.69;;;5.34;100.00
35151;BME280;55720;51.972;4.624;2023-03-04T07:40:28;102827.47;;;5.31;100.00
35151;BME280;55720;51.972;4.624;2023-03-04T07:42:54;102809.03;;;5.38;100.00
35151;BME280;55720;51.972;4.624;2023-03-04T07:45:21;102815.34;;;5.61;100.00
35151;BME280;55720;51.972;4.624;2023-03-04T07:47:47;102813.91;;;5.75;100.00
35151;BME280;55720;51.972;4.624;2023-03-04T07:50:12;102814.56;;;5.82;100.00
35151;BME280;55720;51.972;4.624;2023-03-04T07:52:39;102813.41;;;5.78;100.00
35151;BME280;55720;51.972;4.624;2023-03-04T07:55:05;102814.25;;;5.62;100.00
35151;BME280;55720;51.972;4.624;2023-03-04T07:57:30;102817.41;;;5.70;100.00
35151;BME280;55720;51.972;4.624;2023-03-04T07:59:56;102826.31;;;5.66;100.00
35151;BME280;55720;51.972;4.624;2023-03-04T08:02:21;102827.97;;;5.67;100.00
35151;BME280;55720;51.972;4.624;2023-03-04T08:04:47;102824.94;;;5.63;100.00
35151;BME280;55720;51.972;4.624;2023-03-04T08:07:12;102825.63;;;5.75;100.00
35151;BME280;55720;51.972;4.624;2023-03-04T08:09:37;102826.19;;;5.94;100.00
35151;BME280;55720;51.972;4.624;2023-03-04T08:12:03;102818.38;;;6.24;100.00
35151;BME280;55720;51.972;4.624;2023-03-04T08:14:28;102814.97;;;6.61;100.00
35151;BME280;55720;51.972;4.624;2023-03-04T08:16:54;102819.16;;;7.00;100.00
35151;BME280;55720;51.972;4.624;2023-03-04T08:19:19;102824.78;;;6.88;100.00
35151;BME280;55720;51.972;4.624;2023-03-04T08:21:44;102827.09;;;6.75;100.00
35151;BME280;55720;51.972;4.624;2023-03-04T08:24:10;102831.97;;;6.68;100.00
35151;BME280;55720;51.972;4.624;2023-03-04T08:26:39;102822.31;;;6.60;100.00
35151;BME280;55720;51.972;4.624;2023-03-04T08:29:06;102828.19;;;6.47;100.00
35151;BME280;55720;51.972;4.624;2023-03-04T08:31:32;102826.28;;;6.74;100.00
35151;BME280;55720;51.972;4.624;2023-03-04T08:33:58;102821.25;;;7.25;100.00
35151;BME280;55720;51.972;4.624;2023-03-04T08:36:24;102819.88;;;7.59;100.00
35151;BME280;55720;51.972;4.624;2023-03-04T08:38:49;102821.47;;;7.55;100.00
35151;BME280;55720;51.972;4.624;2023-03-04T08:41:15;102823.25;;;7.81;100.00
35151;BME280;55720;51.972;4.624;2023-03-04T08:43:41;102821.59;;;8.37;100.00
35151;BME280;55720;51.972;4.624;2023-03-04T08:46:06;102819.78;;;9.24;100.00
35151;BME280;55720;51.972;4.624;2023-03-04T08:48:32;102806.88;;;9.55;100.00
35151;BME280;55720;51.972;4.624;2023-03-04T08:50:58;102813.19;;;9.20;100.00
35151;BME280;55720;51.972;4.624;2023-03-04T08:53:23;102806.06;;;8.63;100.00
35151;BME280;55720;51.972;4.624;2023-03-04T08:55:50;102815.16;;;8.07;100.00
35151;BME280;55720;51.972;4.624;2023-03-04T08:58:16;102820.22;;;7.78;100.00
35151;BME280;55720;51.972;4.624;2023-03-04T09:00:44;102819.28;;;8.09;100.00
35151;BME280;55720;51.972;4.624;2023-03-04T09:03:12;102820.53;;;8.38;100.00
35151;BME280;55720;51.972;4.624;2023-03-04T09:05:38;102818.13;;;8.98;100.00
35151;BME280;55720;51.972;4.624;2023-03-04T09:08:03;102818.84;;;8.32;100.00
35151;BME280;55720;51.972;4.624;2023-03-04T09:10:29;102826.19;;;7.65;100.00
35151;BME280;55720;51.972;4.624;2023-03-04T09:12:54;102831.09;;;7.26;100.00
35151;BME280;55720;51.972;4.624;2023-03-04T09:15:19;102828.84;;;7.18;100.00
35151;BME280;55720;51.972;4.624;2023-03-04T09:17:45;102819.19;;;7.42;100.00
35151;BME280;55720;51.972;4.624;2023-03-04T09:20:11;102816.31;;;7.64;100.00
35151;BME280;55720;51.972;4.624;2023-03-04T09:22:37;102803.06;;;7.87;100.00
35151;BME280;55720;51.972;4.624;2023-03-04T09:25:03;102815.59;;;8.35;100.00
35151;BME280;55720;51.972;4.624;2023-03-04T09:27:29;102812.34;;;8.69;100.00
35151;BME280;55720;51.972;4.624;2023-03-04T09:29:55;102812.09;;;8.70;100.00
35151;BME280;55720;51.972;4.624;2023-03-04T09:32:20;102818.63;;;8.54;100.00
35151;BME280;55720;51.972;4.624;2023-03-04T09:34:45;102813.66;;;8.36;100.00
35151;BME280;55720;51.972;4.624;2023-03-04T09:37:11;102810.13;;;8.40;100.00
35151;BME280;55720;51.972;4.624;2023-03-04T09:39:36;102809.88;;;8.52;100.00
35151;BME280;55720;51.972;4.624;2023-03-04T09:42:03;102809.50;;;8.23;100.00
35151;BME280;55720;51.972;4.624;2023-03-04T09:44:32;102806.06;;;7.86;100.00
35151;BME280;55720;51.972;4.624;2023-03-04T09:47:05;102816.56;;;7.57;100.00
35151;BME280;55720;51.972;4.624;2023-03-04T09:49:31;102823.34;;;7.13;100.00
35151;BME280;55720;51.972;4.624;2023-03-04T09:52:21;102820.59;;;7.08;100.00
35151;BME280;55720;51.972;4.624;2023-03-04T09:54:59;102810.03;;;7.21;100.00
35151;BME280;55720;51.972;4.624;2023-03-04T09:57:28;102817.75;;;7.29;100.00
35151;BME280;55720;51.972;4.624;2023-03-04T10:05:19;102797.75;;;8.28;100.00
35151;BME280;55720;51.972;4.624;2023-03-04T10:07:51;102804.47;;;7.95;100.00
35151;BME280;55720;51.972;4.624;2023-03-04T10:10:28;102801.44;;;7.97;100.00
35151;BME280;55720;51.972;4.624;2023-03-04T10:12:56;102803.75;;;7.63;100.00
35151;BME280;55720;51.972;4.624;2023-03-04T10:15:38;102801.06;;;7.31;100.00
35151;BME280;55720;51.972;4.624;2023-03-04T10:18:15;102799.97;;;7.27;100.00
35151;BME280;55720;51.972;4.624;2023-03-04T10:20:53;102792.25;;;7.56;100.00
35151;BME280;55720;51.972;4.624;2023-03-04T10:23:25;102770.38;;;7.56;100.00
35151;BME280;55720;51.972;4.624;2023-03-04T10:25:52;102763.81;;;7.15;100.00
35151;BME280;55720;51.972;4.624;2023-03-04T10:28:26;102755.38;;;6.84;100.00
35151;BME280;55720;51.972;4.624;2023-03-04T10:31:10;102734.91;;;6.82;100.00
35151;BME280;55720;51.972;4.624;2023-03-04T10:33:39;102696.59;;;6.72;100.00
35151;BME280;55720;51.972;4.624;2023-03-04T10:38:42;102642.66;;;7.41;100.00
35151;BME280;55720;51.972;4.624;2023-03-04T10:41:15;102621.22;;;8.05;100.00
35151;BME280;55720;51.972;4.624;2023-03-04T10:43:48;102625.03;;;7.99;100.00
35151;BME280;55720;51.972;4.624;2023-03-04T10:46:14;102630.25;;;8.21;100.00
35151;BME280;55720;51.972;4.624;2023-03-04T10:48:42;102642.59;;;8.28;100.00
35151;BME280;55720;51.972;4.624;2023-03-04T10:51:18;102663.94;;;8.47;100.00
35151;BME280;55720;51.972;4.624;2023-03-04T10:53:45;102668.28;;;8.98;100.00
35151;BME280;55720;51.972;4.624;2023-03-04T10:56:37;102686.31;;;9.19;100.00
35151;BME280;55720;51.972;4.624;2023-03-04T11:04:53;102743.19;;;9.68;100.00
35151;BME280;55720;51.972;4.624;2023-03-04T11:07:20;102747.44;;;9.15;100.00
35151;BME280;55720;51.972;4.624;2023-03-04T11:09:46;102762.25;;;8.63;100.00
35151;BME280;55720;51.972;4.624;2023-03-04T11:12:16;102759.25;;;8.75;100.00
35151;BME280;55720;51.972;4.624;2023-03-04T11:14:45;102765.53;;;8.75;100.00
35151;BME280;55720;51.972;4.624;2023-03-04T11:17:27;102762.25;;;8.83;100.00
35151;BME280;55720;51.972;4.624;2023-03-04T11:20:04;102762.25;;;8.83;100.00
35151;BME280;55720;51.972;4.624;2023-03-04T11:22:33;102771.00;;;8.80;100.00
35151;BME280;55720;51.972;4.624;2023-03-04T11:25:04;102770.16;;;8.55;100.00
35151;BME280;55720;51.972;4.624;2023-03-04T11:27:46;102782.09;;;8.13;100.00
35151;BME280;55720;51.972;4.624;2023-03-04T11:32:44;102773.34;;;8.21;100.00
35151;BME280;55720;51.972;4.624;2023-03-04T11:38:02;102762.34;;;8.01;100.00
35151;BME280;55720;51.972;4.624;2023-03-04T11:40:39;102761.69;;;8.86;100.00
35151;BME280;55720;51.972;4.624;2023-03-04T11:43:15;102747.50;;;9.84;100.00
35151;BME280;55720;51.972;4.624;2023-03-04T11:48:39;102741.34;;;10.12;100.00
35151;BME280;55720;51.972;4.624;2023-03-04T11:51:45;102744.91;;;9.44;100.00
35151;BME280;55720;51.972;4.624;2023-03-04T11:54:43;102743.53;;;9.46;100.00
35151;BME280;55720;51.972;4.624;2023-03-04T12:02:59;102769.13;;;7.83;100.00
35151;BME280;55720;51.972;4.624;2023-03-04T12:11:04;102693.06;;;7.70;100.00
35151;BME280;55720;51.972;4.624;2023-03-04T12:19:48;102645.16;;;7.58;100.00
35151;BME280;55720;51.972;4.624;2023-03-04T12:22:43;102625.34;;;8.28;100.00
35151;BME280;55720;51.972;4.624;2023-03-04T12:27:55;102638.06;;;9.28;100.00
35151;BME280;55720;51.972;4.624;2023-03-04T12:35:59;102662.81;;;10.84;100.00
35151;BME280;55720;51.972;4.624;2023-03-04T12:49:29;102684.09;;;9.31;100.00
35151;BME280;55720;51.972;4.624;2023-03-04T12:52:15;102687.09;;;9.40;100.00
35151;BME280;55720;51.972;4.624;2023-03-04T12:54:49;102677.88;;;9.75;100.00
35151;BME280;55720;51.972;4.624;2023-03-04T12:57:22;102679.53;;;9.71;100.00
35151;BME280;55720;51.972;4.624;2023-03-04T12:59:58;102676.06;;;9.50;100.00
35151;BME280;55720;51.972;4.624;2023-03-04T13:10:28;102677.34;;;8.83;100.00
35151;BME280;55720;51.972;4.624;2023-03-04T13:12:59;102678.16;;;8.89;100.00
35151;BME280;55720;51.972;4.624;2023-03-04T13:17:58;102674.63;;;8.53;100.00
35151;BME280;55720;51.972;4.624;2023-03-04T13:23:22;102686.69;;;8.42;100.00
35151;BME280;55720;51.972;4.624;2023-03-04T13:28:32;102673.28;;;8.35;100.00
35151;BME280;55720;51.972;4.624;2023-03-04T13:31:12;102668.88;;;8.55;100.00
35151;BME280;55720;51.972;4.624;2023-03-04T13:33:44;102679.28;;;8.43;100.00
35151;BME280;55720;51.972;4.624;2023-03-04T13:38:59;102673.22;;;8.10;100.00
35151;BME280;55720;51.972;4.624;2023-03-04T13:41:31;102684.44;;;8.14;100.00
35151;BME280;55720;51.972;4.624;2023-03-04T13:44:01;102670.50;;;8.66;100.00
35151;BME280;55720;51.972;4.624;2023-03-04T13:46:40;102652.84;;;9.27;100.00
35151;BME280;55720;51.972;4.624;2023-03-04T13:49:13;102646.50;;;9.37;100.00
35151;BME280;55720;51.972;4.624;2023-03-04T13:51:42;102654.88;;;8.92;100.00
35151;BME280;55720;51.972;4.624;2023-03-04T13:56:45;102640.38;;;8.81;100.00
35151;BME280;55720;51.972;4.624;2023-03-04T13:59:34;102632.16;;;8.81;100.00
35151;BME280;55720;51.972;4.624;2023-03-04T14:02:17;102640.91;;;8.88;100.00
35151;BME280;55720;51.972;4.624;2023-03-04T14:04:56;102643.38;;;8.84;100.00
35151;BME280;55720;51.972;4.624;2023-03-04T14:07:29;102637.56;;;9.06;100.00
35151;BME280;55720;51.972;4.624;2023-03-04T14:10:18;102635.88;;;9.20;100.00
35151;BME280;55720;51.972;4.624;2023-03-04T14:12:51;102626.50;;;9.36;100.00
35151;BME280;55720;51.972;4.624;2023-03-04T14:15:28;102620.50;;;9.29;100.00
35151;BME280;55720;51.972;4.624;2023-03-04T14:17:56;102609.00;;;9.27;100.00
35151;BME280;55720;51.972;4.624;2023-03-04T14:20:25;102613.34;;;9.33;100.00